sensor_id;sensor_type;location;lat;lon;timestamp;P1;durP1;ratioP1;P2;durP2;ratioP2
52380;SDS011;38310;52.796;6.942;2023-07-30T00:01:49;14.18;;;6.32;;
52380;SDS011;38310;52.796;6.942;2023-07-30T00:04:15;12.57;;;6.68;;
52380;SDS011;38310;52.796;6.942;2023-07-30T00:06:41;13.68;;;6.55;;
52380;SDS011;38310;52.796;6.942;2023-07-30T00:09:06;13.57;;;7.07;;
52380;SDS011;38310;52.796;6.942;2023-07-30T00:11:32;13.85;;;6.78;;
52380;SDS011;38310;52.796;6.942;2023-07-30T00:13:58;11.45;;;6.75;;
52380;SDS011;38310;52.796;6.942;2023-07-30T00:16:25;9.05;;;6.05;;
52380;SDS011;38310;52.796;6.942;2023-07-30T00:18:51;17.20;;;6.07;;
52380;SDS011;38310;52.796;6.942;2023-07-30T00:21:17;15.57;;;6.00;;
52380;SDS011;38310;52.796;6.942;2023-07-30T00:23:43;11.73;;;5.88;;
52380;SDS011;38310;52.796;6.942;2023-07-30T00:26:08;11.68;;;5.95;;
52380;SDS011;38310;52.796;6.942;2023-07-30T00:28:34;10.88;;;6.00;;
52380;SDS011;38310;52.796;6.942;2023-07-30T00:31:00;10.82;;;6.00;;
52380;SDS011;38310;52.796;6.942;2023-07-30T00:33:25;12.18;;;5.88;;
52380;SDS011;38310;52.796;6.942;2023-07-30T00:35:51;16.67;;;6.63;;
52380;SDS011;38310;52.796;6.942;2023-07-30T00:38:18;17.10;;;6.40;;
52380;SDS011;38310;52.796;6.942;2023-07-30T00:40:44;10.43;;;5.95;;
52380;SDS011;38310;52.796;6.942;2023-07-30T00:43:10;17.40;;;6.65;;
52380;SDS011;38310;52.796;6.942;2023-07-30T00:45:36;16.45;;;6.88;;
52380;SDS011;38310;52.796;6.942;2023-07-30T00:48:03;11.90;;;6.20;;
52380;SDS011;38310;52.796;6.942;2023-07-30T00:50:29;15.55;;;6.22;;
52380;SDS011;38310;52.796;6.942;2023-07-30T00:52:56;11.65;;;6.15;;
52380;SDS011;38310;52.796;6.942;2023-07-30T00:55:22;12.50;;;6.43;;
52380;SDS011;38310;52.796;6.942;2023-07-30T00:57:48;13.32;;;6.18;;
52380;SDS011;38310;52.796;6.942;2023-07-30T01:00:15;18.38;;;6.15;;
52380;SDS011;38310;52.796;6.942;2023-07-30T01:02:41;16.08;;;5.65;;
52380;SDS011;38310;52.796;6.942;2023-07-30T01:05:07;13.45;;;5.95;;
52380;SDS011;38310;52.796;6.942;2023-07-30T01:07:33;13.82;;;5.85;;
52380;SDS011;38310;52.796;6.942;2023-07-30T01:09:59;18.95;;;6.20;;
52380;SDS011;38310;52.796;6.942;2023-07-30T01:12:26;14.02;;;5.68;;
52380;SDS011;38310;52.796;6.942;2023-07-30T01:14:54;15.27;;;5.88;;
52380;SDS011;38310;52.796;6.942;2023-07-30T01:17:21;11.43;;;5.85;;
52380;SDS011;38310;52.796;6.942;2023-07-30T01:19:48;14.10;;;5.75;;
52380;SDS011;38310;52.796;6.942;2023-07-30T01:22:19;14.73;;;6.15;;
52380;SDS011;38310;52.796;6.942;2023-07-30T01:24:46;13.20;;;5.63;;
52380;SDS011;38310;52.796;6.942;2023-07-30T01:27:14;16.35;;;5.30;;
52380;SDS011;38310;52.796;6.942;2023-07-30T01:32:19;15.10;;;5.50;;
52380;SDS011;38310;52.796;6.942;2023-07-30T01:37:19;14.98;;;5.20;;
52380;SDS011;38310;52.796;6.942;2023-07-30T01:39:47;14.25;;;5.18;;
52380;SDS011;38310;52.796;6.942;2023-07-30T01:42:14;15.38;;;6.05;;
52380;SDS011;38310;52.796;6.942;2023-07-30T01:44:40;11.50;;;5.47;;
52380;SDS011;38310;52.796;6.942;2023-07-30T01:47:06;12.15;;;5.43;;
52380;SDS011;38310;52.796;6.942;2023-07-30T01:49:32;14.48;;;5.63;;
52380;SDS011;38310;52.796;6.942;2023-07-30T01:51:58;15.32;;;5.18;;
52380;SDS011;38310;52.796;6.942;2023-07-30T01:54:24;11.95;;;4.60;;
52380;SDS011;38310;52.796;6.942;2023-07-30T01:56:50;10.38;;;4.88;;
52380;SDS011;38310;52.796;6.942;2023-07-30T01:59:16;12.55;;;5.38;;
52380;SDS011;38310;52.796;6.942;2023-07-30T02:01:43;12.27;;;5.38;;
52380;SDS011;38310;52.796;6.942;2023-07-30T02:04:08;17.10;;;4.88;;
52380;SDS011;38310;52.796;6.942;2023-07-30T02:06:34;13.38;;;5.32;;
52380;SDS011;38310;52.796;6.942;2023-07-30T02:09:00;12.65;;;4.95;;
52380;SDS011;38310;52.796;6.942;2023-07-30T02:11:26;8.32;;;5.10;;
52380;SDS011;38310;52.796;6.942;2023-07-30T02:13:53;16.38;;;4.50;;
52380;SDS011;38310;52.796;6.942;2023-07-30T02:16:19;12.70;;;4.97;;
52380;SDS011;38310;52.796;6.942;2023-07-30T02:18:45;11.07;;;4.63;;
52380;SDS011;38310;52.796;6.942;2023-07-30T02:21:10;14.88;;;4.60;;
52380;SDS011;38310;52.796;6.942;2023-07-30T02:23:36;14.02;;;4.47;;
52380;SDS011;38310;52.796;6.942;2023-07-30T02:26:02;14.43;;;4.82;;
52380;SDS011;38310;52.796;6.942;2023-07-30T02:28:28;10.52;;;4.43;;
52380;SDS011;38310;52.796;6.942;2023-07-30T02:30:53;12.40;;;4.10;;
52380;SDS011;38310;52.796;6.942;2023-07-30T02:33:19;9.57;;;4.03;;
52380;SDS011;38310;52.796;6.942;2023-07-30T02:35:45;14.38;;;3.70;;
52380;SDS011;38310;52.796;6.942;2023-07-30T02:38:10;9.77;;;4.15;;
52380;SDS011;38310;52.796;6.942;2023-07-30T02:40:36;10.55;;;3.75;;
52380;SDS011;38310;52.796;6.942;2023-07-30T02:43:02;10.18;;;4.30;;
52380;SDS011;38310;52.796;6.942;2023-07-30T02:45:27;12.65;;;3.95;;
52380;SDS011;38310;52.796;6.942;2023-07-30T02:47:53;10.80;;;3.97;;
52380;SDS011;38310;52.796;6.942;2023-07-30T02:50:19;10.00;;;3.88;;
52380;SDS011;38310;52.796;6.942;2023-07-30T02:52:44;10.13;;;4.80;;
52380;SDS011;38310;52.796;6.942;2023-07-30T02:55:10;9.98;;;4.43;;
52380;SDS011;38310;52.796;6.942;2023-07-30T02:57:36;11.70;;;4.28;;
52380;SDS011;38310;52.796;6.942;2023-07-30T03:00:02;8.70;;;3.72;;
52380;SDS011;38310;52.796;6.942;2023-07-30T03:02:29;9.80;;;4.53;;
52380;SDS011;38310;52.796;6.942;2023-07-30T03:04:55;11.55;;;3.97;;
52380;SDS011;38310;52.796;6.942;2023-07-30T03:07:21;10.75;;;4.53;;
52380;SDS011;38310;52.796;6.942;2023-07-30T03:09:47;12.75;;;4.50;;
52380;SDS011;38310;52.796;6.942;2023-07-30T03:12:14;11.07;;;4.35;;
52380;SDS011;38310;52.796;6.942;2023-07-30T03:14:39;9.88;;;4.40;;
52380;SDS011;38310;52.796;6.942;2023-07-30T03:17:05;11.43;;;4.50;;
52380;SDS011;38310;52.796;6.942;2023-07-30T03:19:31;14.57;;;5.43;;
52380;SDS011;38310;52.796;6.942;2023-07-30T03:21:57;9.80;;;4.38;;
52380;SDS011;38310;52.796;6.942;2023-07-30T03:24:23;7.88;;;4.53;;
52380;SDS011;38310;52.796;6.942;2023-07-30T03:26:48;11.40;;;4.63;;
52380;SDS011;38310;52.796;6.942;2023-07-30T03:29:15;10.05;;;4.55;;
52380;SDS011;38310;52.796;6.942;2023-07-30T03:31:41;8.18;;;4.40;;
52380;SDS011;38310;52.796;6.942;2023-07-30T03:34:06;11.40;;;5.20;;
52380;SDS011;38310;52.796;6.942;2023-07-30T03:36:32;11.57;;;5.13;;
52380;SDS011;38310;52.796;6.942;2023-07-30T03:38:58;13.88;;;5.05;;
52380;SDS011;38310;52.796;6.942;2023-07-30T03:41:24;11.05;;;5.60;;
52380;SDS011;38310;52.796;6.942;2023-07-30T03:43:50;11.75;;;5.38;;
52380;SDS011;38310;52.796;6.942;2023-07-30T03:46:16;11.07;;;5.80;;
52380;SDS011;38310;52.796;6.942;2023-07-30T03:48:41;12.40;;;4.72;;
52380;SDS011;38310;52.796;6.942;2023-07-30T03:51:08;12.60;;;5.70;;
52380;SDS011;38310;52.796;6.942;2023-07-30T03:53:34;14.57;;;5.43;;
52380;SDS011;38310;52.796;6.942;2023-07-30T03:56:00;13.20;;;5.80;;
52380;SDS011;38310;52.796;6.942;2023-07-30T03:58:26;12.45;;;5.53;;
52380;SDS011;38310;52.796;6.942;2023-07-30T04:00:51;12.98;;;5.32;;
52380;SDS011;38310;52.796;6.942;2023-07-30T04:03:17;12.30;;;5.57;;
52380;SDS011;38310;52.796;6.942;2023-07-30T04:05:43;10.73;;;5.30;;
52380;SDS011;38310;52.796;6.942;2023-07-30T04:08:09;12.88;;;5.72;;
52380;SDS011;38310;52.796;6.942;2023-07-30T04:10:34;14.07;;;5.95;;
52380;SDS011;38310;52.796;6.942;2023-07-30T04:13:01;10.68;;;5.55;;
52380;SDS011;38310;52.796;6.942;2023-07-30T04:15:26;14.20;;;6.18;;
52380;SDS011;38310;52.796;6.942;2023-07-30T04:17:52;12.57;;;6.22;;
52380;SDS011;38310;52.796;6.942;2023-07-30T04:20:18;15.32;;;6.20;;
52380;SDS011;38310;52.796;6.942;2023-07-30T04:22:44;17.73;;;5.95;;
52380;SDS011;38310;52.796;6.942;2023-07-30T04:25:10;12.55;;;5.93;;
52380;SDS011;38310;52.796;6.942;2023-07-30T04:27:36;12.02;;;5.65;;
52380;SDS011;38310;52.796;6.942;2023-07-30T04:30:02;16.70;;;6.25;;
52380;SDS011;38310;52.796;6.942;2023-07-30T04:32:29;17.65;;;6.32;;
52380;SDS011;38310;52.796;6.942;2023-07-30T04:34:55;13.93;;;6.45;;
52380;SDS011;38310;52.796;6.942;2023-07-30T04:37:21;15.65;;;6.22;;
52380;SDS011;38310;52.796;6.942;2023-07-30T04:39:47;13.50;;;5.90;;
52380;SDS011;38310;52.796;6.942;2023-07-30T04:42:13;14.13;;;6.40;;
52380;SDS011;38310;52.796;6.942;2023-07-30T04:44:40;14.43;;;6.13;;
52380;SDS011;38310;52.796;6.942;2023-07-30T04:47:06;14.45;;;5.35;;
52380;SDS011;38310;52.796;6.942;2023-07-30T04:49:32;18.23;;;6.55;;
52380;SDS011;38310;52.796;6.942;2023-07-30T04:51:58;14.43;;;6.50;;
52380;SDS011;38310;52.796;6.942;2023-07-30T04:54:24;14.65;;;5.90;;
52380;SDS011;38310;52.796;6.942;2023-07-30T04:56:50;11.02;;;6.18;;
52380;SDS011;38310;52.796;6.942;2023-07-30T04:59:16;16.52;;;6.47;;
52380;SDS011;38310;52.796;6.942;2023-07-30T05:01:41;13.32;;;6.25;;
52380;SDS011;38310;52.796;6.942;2023-07-30T05:04:07;18.10;;;6.40;;
52380;SDS011;38310;52.796;6.942;2023-07-30T05:06:33;18.00;;;6.78;;
52380;SDS011;38310;52.796;6.942;2023-07-30T05:08:59;17.60;;;6.82;;
52380;SDS011;38310;52.796;6.942;2023-07-30T05:11:24;13.88;;;6.03;;
52380;SDS011;38310;52.796;6.942;2023-07-30T05:13:50;11.15;;;5.80;;
52380;SDS011;38310;52.796;6.942;2023-07-30T05:16:16;15.32;;;6.10;;
52380;SDS011;38310;52.796;6.942;2023-07-30T05:18:42;12.40;;;5.90;;
52380;SDS011;38310;52.796;6.942;2023-07-30T05:21:07;13.38;;;6.00;;
52380;SDS011;38310;52.796;6.942;2023-07-30T05:23:33;13.35;;;5.97;;
52380;SDS011;38310;52.796;6.942;2023-07-30T05:25:59;15.88;;;6.43;;
52380;SDS011;38310;52.796;6.942;2023-07-30T05:28:25;15.13;;;6.10;;
52380;SDS011;38310;52.796;6.942;2023-07-30T05:30:51;15.27;;;6.65;;
52380;SDS011;38310;52.796;6.942;2023-07-30T05:33:17;14.63;;;6.32;;
52380;SDS011;38310;52.796;6.942;2023-07-30T05:35:43;13.15;;;6.15;;
52380;SDS011;38310;52.796;6.942;2023-07-30T05:38:09;14.93;;;6.68;;
52380;SDS011;38310;52.796;6.942;2023-07-30T05:40:35;15.23;;;6.00;;
52380;SDS011;38310;52.796;6.942;2023-07-30T05:43:01;28.20;;;6.05;;
52380;SDS011;38310;52.796;6.942;2023-07-30T05:45:27;16.10;;;6.35;;
52380;SDS011;38310;52.796;6.942;2023-07-30T05:47:53;15.50;;;7.00;;
52380;SDS011;38310;52.796;6.942;2023-07-30T05:50:19;19.58;;;6.30;;
52380;SDS011;38310;52.796;6.942;2023-07-30T05:52:45;17.98;;;6.80;;
52380;SDS011;38310;52.796;6.942;2023-07-30T05:55:11;22.38;;;7.05;;
52380;SDS011;38310;52.796;6.942;2023-07-30T05:57:36;19.05;;;6.80;;
52380;SDS011;38310;52.796;6.942;2023-07-30T06:00:02;17.40;;;6.57;;
52380;SDS011;38310;52.796;6.942;2023-07-30T06:02:28;21.23;;;7.65;;
52380;SDS011;38310;52.796;6.942;2023-07-30T06:04:54;21.38;;;7.68;;
52380;SDS011;38310;52.796;6.942;2023-07-30T06:07:20;18.20;;;7.05;;
52380;SDS011;38310;52.796;6.942;2023-07-30T06:09:46;23.20;;;7.68;;
52380;SDS011;38310;52.796;6.942;2023-07-30T06:12:11;18.73;;;8.35;;
52380;SDS011;38310;52.796;6.942;2023-07-30T06:14:37;15.32;;;7.15;;
52380;SDS011;38310;52.796;6.942;2023-07-30T06:17:03;18.48;;;7.25;;
52380;SDS011;38310;52.796;6.942;2023-07-30T06:19:29;19.85;;;7.30;;
52380;SDS011;38310;52.796;6.942;2023-07-30T06:21:54;16.73;;;7.38;;
52380;SDS011;38310;52.796;6.942;2023-07-30T06:24:20;19.50;;;6.90;;
52380;SDS011;38310;52.796;6.942;2023-07-30T06:26:46;18.08;;;7.55;;
52380;SDS011;38310;52.796;6.942;2023-07-30T06:29:11;20.27;;;8.80;;
52380;SDS011;38310;52.796;6.942;2023-07-30T06:31:37;17.48;;;7.60;;
52380;SDS011;38310;52.796;6.942;2023-07-30T06:34:03;19.05;;;7.57;;
52380;SDS011;38310;52.796;6.942;2023-07-30T06:36:29;16.60;;;7.63;;
52380;SDS011;38310;52.796;6.942;2023-07-30T06:38:55;18.35;;;7.72;;
52380;SDS011;38310;52.796;6.942;2023-07-30T06:41:21;20.88;;;7.65;;
52380;SDS011;38310;52.796;6.942;2023-07-30T06:43:46;19.45;;;7.80;;
52380;SDS011;38310;52.796;6.942;2023-07-30T06:46:12;17.33;;;7.43;;
52380;SDS011;38310;52.796;6.942;2023-07-30T06:48:38;21.73;;;7.05;;
52380;SDS011;38310;52.796;6.942;2023-07-30T06:51:10;21.23;;;7.20;;
52380;SDS011;38310;52.796;6.942;2023-07-30T06:53:40;17.45;;;7.80;;
52380;SDS011;38310;52.796;6.942;2023-07-30T06:56:12;22.20;;;7.55;;
52380;SDS011;38310;52.796;6.942;2023-07-30T06:58:38;17.13;;;7.72;;
52380;SDS011;38310;52.796;6.942;2023-07-30T07:01:03;18.73;;;6.60;;
52380;SDS011;38310;52.796;6.942;2023-07-30T07:03:29;19.30;;;7.72;;
52380;SDS011;38310;52.796;6.942;2023-07-30T07:05:55;19.02;;;7.10;;
52380;SDS011;38310;52.796;6.942;2023-07-30T07:08:22;20.13;;;6.93;;
52380;SDS011;38310;52.796;6.942;2023-07-30T07:10:48;15.88;;;6.65;;
52380;SDS011;38310;52.796;6.942;2023-07-30T07:13:14;18.13;;;7.10;;
52380;SDS011;38310;52.796;6.942;2023-07-30T07:15:44;17.10;;;7.00;;
52380;SDS011;38310;52.796;6.942;2023-07-30T07:18:09;21.50;;;6.75;;
52380;SDS011;38310;52.796;6.942;2023-07-30T07:20:36;13.20;;;6.43;;
52380;SDS011;38310;52.796;6.942;2023-07-30T07:23:02;16.50;;;6.35;;
52380;SDS011;38310;52.796;6.942;2023-07-30T07:25:28;18.42;;;6.55;;
52380;SDS011;38310;52.796;6.942;2023-07-30T07:27:54;16.60;;;6.38;;
52380;SDS011;38310;52.796;6.942;2023-07-30T07:30:20;17.63;;;7.63;;
52380;SDS011;38310;52.796;6.942;2023-07-30T07:32:45;20.42;;;6.72;;
52380;SDS011;38310;52.796;6.942;2023-07-30T07:35:15;19.23;;;6.47;;
52380;SDS011;38310;52.796;6.942;2023-07-30T07:37:44;17.23;;;6.28;;
52380;SDS011;38310;52.796;6.942;2023-07-30T07:40:10;18.60;;;6.60;;
52380;SDS011;38310;52.796;6.942;2023-07-30T07:42:37;14.05;;;6.15;;
52380;SDS011;38310;52.796;6.942;2023-07-30T07:45:04;16.70;;;6.43;;
52380;SDS011;38310;52.796;6.942;2023-07-30T07:47:31;15.95;;;6.55;;
52380;SDS011;38310;52.796;6.942;2023-07-30T07:49:57;16.95;;;6.50;;
52380;SDS011;38310;52.796;6.942;2023-07-30T07:52:22;14.90;;;5.82;;
52380;SDS011;38310;52.796;6.942;2023-07-30T07:54:48;18.27;;;6.57;;
52380;SDS011;38310;52.796;6.942;2023-07-30T07:57:14;14.27;;;6.45;;
52380;SDS011;38310;52.796;6.942;2023-07-30T07:59:40;20.60;;;7.03;;
52380;SDS011;38310;52.796;6.942;2023-07-30T08:02:09;13.57;;;6.22;;
52380;SDS011;38310;52.796;6.942;2023-07-30T08:04:36;16.25;;;6.38;;
52380;SDS011;38310;52.796;6.942;2023-07-30T08:07:01;16.42;;;6.95;;
52380;SDS011;38310;52.796;6.942;2023-07-30T08:09:28;15.85;;;6.25;;
52380;SDS011;38310;52.796;6.942;2023-07-30T08:11:55;15.50;;;6.05;;
52380;SDS011;38310;52.796;6.942;2023-07-30T08:14:21;16.35;;;6.57;;
52380;SDS011;38310;52.796;6.942;2023-07-30T08:16:47;16.10;;;6.28;;
52380;SDS011;38310;52.796;6.942;2023-07-30T08:19:12;15.73;;;5.93;;
52380;SDS011;38310;52.796;6.942;2023-07-30T08:21:38;15.32;;;6.05;;
52380;SDS011;38310;52.796;6.942;2023-07-30T08:24:04;14.02;;;5.60;;
52380;SDS011;38310;52.796;6.942;2023-07-30T08:26:30;14.52;;;6.18;;
52380;SDS011;38310;52.796;6.942;2023-07-30T08:28:57;12.65;;;5.70;;
52380;SDS011;38310;52.796;6.942;2023-07-30T08:31:22;14.82;;;5.78;;
52380;SDS011;38310;52.796;6.942;2023-07-30T08:33:48;15.60;;;5.85;;
52380;SDS011;38310;52.796;6.942;2023-07-30T08:36:14;19.73;;;6.55;;
52380;SDS011;38310;52.796;6.942;2023-07-30T08:38:40;13.30;;;5.90;;
52380;SDS011;38310;52.796;6.942;2023-07-30T08:41:06;12.82;;;6.30;;
52380;SDS011;38310;52.796;6.942;2023-07-30T08:43:32;14.02;;;6.53;;
52380;SDS011;38310;52.796;6.942;2023-07-30T08:45:59;22.02;;;6.90;;
52380;SDS011;38310;52.796;6.942;2023-07-30T08:48:25;16.33;;;5.78;;
52380;SDS011;38310;52.796;6.942;2023-07-30T08:50:51;12.40;;;5.47;;
52380;SDS011;38310;52.796;6.942;2023-07-30T08:53:21;13.32;;;5.50;;
52380;SDS011;38310;52.796;6.942;2023-07-30T08:55:47;14.98;;;5.93;;
52380;SDS011;38310;52.796;6.942;2023-07-30T08:58:13;12.75;;;5.20;;
52380;SDS011;38310;52.796;6.942;2023-07-30T09:00:41;13.95;;;5.40;;
52380;SDS011;38310;52.796;6.942;2023-07-30T09:03:08;10.98;;;5.20;;
52380;SDS011;38310;52.796;6.942;2023-07-30T09:05:34;13.18;;;5.25;;
52380;SDS011;38310;52.796;6.942;2023-07-30T09:08:00;14.30;;;5.20;;
52380;SDS011;38310;52.796;6.942;2023-07-30T09:10:26;11.57;;;5.30;;
52380;SDS011;38310;52.796;6.942;2023-07-30T09:12:53;13.23;;;4.70;;
52380;SDS011;38310;52.796;6.942;2023-07-30T09:15:20;13.77;;;5.32;;
52380;SDS011;38310;52.796;6.942;2023-07-30T09:17:58;14.60;;;5.57;;
52380;SDS011;38310;52.796;6.942;2023-07-30T09:20:25;14.80;;;5.25;;
52380;SDS011;38310;52.796;6.942;2023-07-30T09:22:51;12.75;;;4.97;;
52380;SDS011;38310;52.796;6.942;2023-07-30T09:25:18;14.88;;;6.22;;
52380;SDS011;38310;52.796;6.942;2023-07-30T09:27:52;10.60;;;5.38;;
52380;SDS011;38310;52.796;6.942;2023-07-30T09:30:21;13.43;;;5.55;;
52380;SDS011;38310;52.796;6.942;2023-07-30T09:32:50;13.27;;;6.10;;
52380;SDS011;38310;52.796;6.942;2023-07-30T09:35:18;13.20;;;5.65;;
52380;SDS011;38310;52.796;6.942;2023-07-30T09:37:45;10.70;;;5.18;;
52380;SDS011;38310;52.796;6.942;2023-07-30T09:40:11;12.25;;;5.80;;
52380;SDS011;38310;52.796;6.942;2023-07-30T09:42:43;14.23;;;5.60;;
52380;SDS011;38310;52.796;6.942;2023-07-30T09:45:23;12.70;;;5.07;;
52380;SDS011;38310;52.796;6.942;2023-07-30T09:47:50;13.40;;;5.75;;
52380;SDS011;38310;52.796;6.942;2023-07-30T09:50:17;12.10;;;5.55;;
52380;SDS011;38310;52.796;6.942;2023-07-30T09:52:43;14.85;;;5.43;;
52380;SDS011;38310;52.796;6.942;2023-07-30T09:55:09;11.75;;;5.28;;
52380;SDS011;38310;52.796;6.942;2023-07-30T09:57:38;11.60;;;5.88;;
52380;SDS011;38310;52.796;6.942;2023-07-30T10:00:05;14.93;;;6.05;;
52380;SDS011;38310;52.796;6.942;2023-07-30T10:02:38;12.60;;;5.40;;
52380;SDS011;38310;52.796;6.942;2023-07-30T10:05:15;15.73;;;6.15;;
52380;SDS011;38310;52.796;6.942;2023-07-30T10:08:05;10.95;;;5.93;;
52380;SDS011;38310;52.796;6.942;2023-07-30T10:10:38;12.93;;;5.90;;
52380;SDS011;38310;52.796;6.942;2023-07-30T10:13:08;11.75;;;6.15;;
52380;SDS011;38310;52.796;6.942;2023-07-30T10:15:39;14.63;;;6.80;;
52380;SDS011;38310;52.796;6.942;2023-07-30T10:18:05;14.13;;;5.95;;
52380;SDS011;38310;52.796;6.942;2023-07-30T10:20:31;14.57;;;7.07;;
52380;SDS011;38310;52.796;6.942;2023-07-30T10:22:57;7.60;;;2.88;;
52380;SDS011;38310;52.796;6.942;2023-07-30T10:28:26;5.35;;;2.30;;
52380;SDS011;38310;52.796;6.942;2023-07-30T10:31:06;6.23;;;2.80;;
52380;SDS011;38310;52.796;6.942;2023-07-30T10:33:51;5.38;;;2.50;;
52380;SDS011;38310;52.796;6.942;2023-07-30T10:36:31;6.15;;;2.42;;
52380;SDS011;38310;52.796;6.942;2023-07-30T10:39:15;7.47;;;2.75;;
52380;SDS011;38310;52.796;6.942;2023-07-30T10:41:49;5.35;;;2.40;;
52380;SDS011;38310;52.796;6.942;2023-07-30T10:44:38;5.78;;;2.50;;
52380;SDS011;38310;52.796;6.942;2023-07-30T10:47:08;7.28;;;2.78;;
52380;SDS011;38310;52.796;6.942;2023-07-30T10:49:37;7.57;;;3.40;;
52380;SDS011;38310;52.796;6.942;2023-07-30T10:52:04;10.13;;;3.53;;
52380;SDS011;38310;52.796;6.942;2023-07-30T10:54:33;6.70;;;2.53;;
52380;SDS011;38310;52.796;6.942;2023-07-30T10:56:59;9.82;;;3.28;;
52380;SDS011;38310;52.796;6.942;2023-07-30T10:59:25;6.93;;;2.88;;
52380;SDS011;38310;52.796;6.942;2023-07-30T11:01:52;6.60;;;2.75;;
52380;SDS011;38310;52.796;6.942;2023-07-30T11:04:18;11.07;;;3.22;;
52380;SDS011;38310;52.796;6.942;2023-07-30T11:06:46;9.63;;;3.55;;
52380;SDS011;38310;52.796;6.942;2023-07-30T11:09:20;8.57;;;3.35;;
52380;SDS011;38310;52.796;6.942;2023-07-30T11:11:56;9.50;;;3.60;;
52380;SDS011;38310;52.796;6.942;2023-07-30T11:14:23;6.70;;;3.35;;
52380;SDS011;38310;52.796;6.942;2023-07-30T11:16:54;7.22;;;3.70;;
52380;SDS011;38310;52.796;6.942;2023-07-30T11:19:23;10.02;;;3.70;;
52380;SDS011;38310;52.796;6.942;2023-07-30T11:21:52;10.07;;;3.55;;
52380;SDS011;38310;52.796;6.942;2023-07-30T11:24:22;8.02;;;3.35;;
52380;SDS011;38310;52.796;6.942;2023-07-30T11:26:58;7.47;;;3.90;;
52380;SDS011;38310;52.796;6.942;2023-07-30T11:29:27;7.72;;;3.50;;
52380;SDS011;38310;52.796;6.942;2023-07-30T11:31:55;8.98;;;3.30;;
52380;SDS011;38310;52.796;6.942;2023-07-30T11:34:23;9.27;;;2.92;;
52380;SDS011;38310;52.796;6.942;2023-07-30T11:36:51;11.60;;;3.65;;
52380;SDS011;38310;52.796;6.942;2023-07-30T11:39:17;7.13;;;2.92;;
52380;SDS011;38310;52.796;6.942;2023-07-30T11:41:43;10.15;;;2.95;;
52380;SDS011;38310;52.796;6.942;2023-07-30T11:44:29;7.28;;;2.58;;
52380;SDS011;38310;52.796;6.942;2023-07-30T11:46:56;8.73;;;2.90;;
52380;SDS011;38310;52.796;6.942;2023-07-30T11:49:21;8.23;;;2.67;;
52380;SDS011;38310;52.796;6.942;2023-07-30T11:51:47;10.73;;;2.53;;
52380;SDS011;38310;52.796;6.942;2023-07-30T11:54:22;6.22;;;3.10;;
52380;SDS011;38310;52.796;6.942;2023-07-30T11:56:55;6.65;;;2.30;;
52380;SDS011;38310;52.796;6.942;2023-07-30T11:59:21;8.98;;;2.80;;
52380;SDS011;38310;52.796;6.942;2023-07-30T12:01:47;7.22;;;2.03;;
52380;SDS011;38310;52.796;6.942;2023-07-30T12:04:13;5.80;;;1.85;;
52380;SDS011;38310;52.796;6.942;2023-07-30T12:09:17;5.53;;;1.88;;
52380;SDS011;38310;52.796;6.942;2023-07-30T12:14:41;5.68;;;1.60;;
52380;SDS011;38310;52.796;6.942;2023-07-30T12:17:12;5.63;;;1.63;;
52380;SDS011;38310;52.796;6.942;2023-07-30T12:19:39;5.05;;;1.52;;
52380;SDS011;38310;52.796;6.942;2023-07-30T12:22:06;6.38;;;1.92;;
52380;SDS011;38310;52.796;6.942;2023-07-30T12:24:31;8.40;;;2.10;;
52380;SDS011;38310;52.796;6.942;2023-07-30T12:26:57;9.52;;;1.63;;
52380;SDS011;38310;52.796;6.942;2023-07-30T12:29:24;5.70;;;1.60;;
52380;SDS011;38310;52.796;6.942;2023-07-30T12:31:50;6.75;;;1.40;;
52380;SDS011;38310;52.796;6.942;2023-07-30T12:34:18;4.95;;;1.65;;
52380;SDS011;38310;52.796;6.942;2023-07-30T12:36:45;9.80;;;1.70;;
52380;SDS011;38310;52.796;6.942;2023-07-30T12:39:11;5.95;;;1.73;;
52380;SDS011;38310;52.796;6.942;2023-07-30T12:41:37;5.25;;;1.40;;
52380;SDS011;38310;52.796;6.942;2023-07-30T12:44:04;7.82;;;1.88;;
52380;SDS011;38310;52.796;6.942;2023-07-30T12:46:31;5.88;;;1.83;;
52380;SDS011;38310;52.796;6.942;2023-07-30T12:48:58;7.18;;;1.95;;
52380;SDS011;38310;52.796;6.942;2023-07-30T12:51:29;5.35;;;1.33;;
52380;SDS011;38310;52.796;6.942;2023-07-30T12:53:55;5.93;;;1.85;;
52380;SDS011;38310;52.796;6.942;2023-07-30T12:56:21;5.25;;;1.70;;
52380;SDS011;38310;52.796;6.942;2023-07-30T12:58:47;5.78;;;1.50;;
52380;SDS011;38310;52.796;6.942;2023-07-30T13:01:13;4.57;;;1.33;;
52380;SDS011;38310;52.796;6.942;2023-07-30T13:03:38;6.05;;;1.73;;
52380;SDS011;38310;52.796;6.942;2023-07-30T13:06:04;7.22;;;1.33;;
52380;SDS011;38310;52.796;6.942;2023-07-30T13:08:30;6.13;;;1.58;;
52380;SDS011;38310;52.796;6.942;2023-07-30T13:10:56;6.78;;;1.60;;
52380;SDS011;38310;52.796;6.942;2023-07-30T13:13:22;7.38;;;1.33;;
52380;SDS011;38310;52.796;6.942;2023-07-30T13:15:48;5.03;;;1.55;;
52380;SDS011;38310;52.796;6.942;2023-07-30T13:18:14;5.65;;;1.20;;
52380;SDS011;38310;52.796;6.942;2023-07-30T13:20:40;5.97;;;1.33;;
52380;SDS011;38310;52.796;6.942;2023-07-30T13:23:06;4.07;;;1.27;;
52380;SDS011;38310;52.796;6.942;2023-07-30T13:25:32;5.53;;;1.48;;
52380;SDS011;38310;52.796;6.942;2023-07-30T13:27:57;5.25;;;1.48;;
52380;SDS011;38310;52.796;6.942;2023-07-30T13:30:23;7.13;;;1.52;;
52380;SDS011;38310;52.796;6.942;2023-07-30T13:32:49;4.93;;;1.50;;
52380;SDS011;38310;52.796;6.942;2023-07-30T13:35:15;5.80;;;1.73;;
52380;SDS011;38310;52.796;6.942;2023-07-30T13:37:40;3.05;;;1.02;;
52380;SDS011;38310;52.796;6.942;2023-07-30T13:40:06;4.43;;;1.25;;
52380;SDS011;38310;52.796;6.942;2023-07-30T13:42:32;4.10;;;1.17;;
52380;SDS011;38310;52.796;6.942;2023-07-30T13:44:58;6.63;;;1.20;;
52380;SDS011;38310;52.796;6.942;2023-07-30T13:47:25;5.22;;;1.38;;
52380;SDS011;38310;52.796;6.942;2023-07-30T13:49:50;7.13;;;1.95;;
52380;SDS011;38310;52.796;6.942;2023-07-30T13:52:17;5.93;;;1.90;;
52380;SDS011;38310;52.796;6.942;2023-07-30T13:54:42;5.53;;;1.48;;
52380;SDS011;38310;52.796;6.942;2023-07-30T13:57:10;5.10;;;1.70;;
52380;SDS011;38310;52.796;6.942;2023-07-30T13:59:36;5.43;;;1.40;;
52380;SDS011;38310;52.796;6.942;2023-07-30T14:02:02;6.28;;;1.42;;
52380;SDS011;38310;52.796;6.942;2023-07-30T14:04:29;7.63;;;1.95;;
52380;SDS011;38310;52.796;6.942;2023-07-30T14:06:54;4.75;;;1.50;;
52380;SDS011;38310;52.796;6.942;2023-07-30T14:09:20;5.65;;;1.88;;
52380;SDS011;38310;52.796;6.942;2023-07-30T14:11:46;5.60;;;1.50;;
52380;SDS011;38310;52.796;6.942;2023-07-30T14:14:12;6.97;;;1.30;;
52380;SDS011;38310;52.796;6.942;2023-07-30T14:16:37;3.95;;;1.50;;
52380;SDS011;38310;52.796;6.942;2023-07-30T14:19:03;6.80;;;1.38;;
52380;SDS011;38310;52.796;6.942;2023-07-30T14:21:29;4.95;;;1.20;;
52380;SDS011;38310;52.796;6.942;2023-07-30T14:23:55;7.93;;;1.27;;
52380;SDS011;38310;52.796;6.942;2023-07-30T14:26:20;5.30;;;1.27;;
52380;SDS011;38310;52.796;6.942;2023-07-30T14:28:46;4.15;;;1.25;;
52380;SDS011;38310;52.796;6.942;2023-07-30T14:31:12;5.30;;;2.10;;
52380;SDS011;38310;52.796;6.942;2023-07-30T14:33:39;5.15;;;1.98;;
52380;SDS011;38310;52.796;6.942;2023-07-30T14:36:05;7.43;;;1.50;;
52380;SDS011;38310;52.796;6.942;2023-07-30T14:38:31;6.82;;;1.42;;
52380;SDS011;38310;52.796;6.942;2023-07-30T14:40:59;7.15;;;1.88;;
52380;SDS011;38310;52.796;6.942;2023-07-30T14:43:26;7.10;;;1.85;;
52380;SDS011;38310;52.796;6.942;2023-07-30T14:45:51;4.50;;;1.40;;
52380;SDS011;38310;52.796;6.942;2023-07-30T14:48:17;6.43;;;1.60;;
52380;SDS011;38310;52.796;6.942;2023-07-30T14:50:43;4.03;;;1.65;;